Time;durP1;ratioP1;P1;durP2;ratioP2;P2;SDS_P1;SDS_P2;PMS_P1;PMS_P2;Temp;Humidity;BMP_temperature;BMP_pressure;BME280_temperature;BME280_humidity;BME280_pressure;Samples;Min_cycle;Max_cycle;Signal;HPM_P1;HPM_P2
2021/12/20 00:02:24;;;;;;;32.28;15.77;;;;;;;3.10;100.00;101606.38;5115486;28;20055;-50
2021/12/20 00:04:53;;;;;;;39.05;16.10;;;;;;;3.03;100.00;101607.38;5115753;28;20059;-50
2021/12/20 00:07:21;;;;;;;30.38;14.55;;;;;;;2.98;100.00;101610.91;5115104;28;20056;-50
2021/12/20 00:09:49;;;;;;;35.55;15.32;;;;;;;3.01;100.00;101609.13;5115532;28;20059;-50
2021/12/20 00:12:18;;;;;;;30.15;14.50;;;;;;;3.01;100.00;101604.75;5115002;28;20051;-50
2021/12/20 00:14:47;;;;;;;33.80;15.60;;;;;;;3.06;100.00;101607.28;5115861;28;20066;-50
2021/12/20 00:17:15;;;;;;;34.33;15.98;;;;;;;3.05;100.00;101622.16;5114939;28;20537;-50
2021/12/20 00:19:44;;;;;;;27.63;13.55;;;;;;;3.05;100.00;101610.81;5115204;28;20062;-51
2021/12/20 00:22:12;;;;;;;30.75;15.35;;;;;;;3.08;100.00;101613.41;5115453;28;20055;-50
2021/12/20 00:24:40;;;;;;;28.10;15.07;;;;;;;3.07;100.00;101604.66;5115124;28;20515;-50
2021/12/20 00:27:10;;;;;;;31.25;15.40;;;;;;;3.10;100.00;101614.25;5114838;28;20070;-51
2021/12/20 00:29:38;;;;;;;29.67;15.75;;;;;;;3.05;100.00;101605.59;5115058;28;20055;-50
2021/12/20 00:32:08;;;;;;;27.25;13.93;;;;;;;3.07;100.00;101614.28;5114966;28;20056;-50
2021/12/20 00:34:37;;;;;;;30.92;14.63;;;;;;;3.06;100.00;101602.06;5115129;28;20056;-51
2021/12/20 00:40:19;;;;;;;27.88;14.57;;;;;;;3.10;100.00;101601.13;5114690;28;20525;-50
2021/12/20 00:42:39;;;;;;;29.05;13.93;;;;;;;3.09;100.00;101596.78;5114235;28;20070;-50
2021/12/20 00:45:08;;;;;;;26.85;13.80;;;;;;;3.15;100.00;101588.84;5115852;28;20415;-51
2021/12/20 00:47:38;;;;;;;28.02;14.27;;;;;;;3.08;100.00;101574.94;5114590;28;20067;-50
2021/12/20 00:50:09;;;;;;;32.10;14.82;;;;;;;3.17;100.00;101590.53;5115665;28;20060;-50
2021/12/20 00:52:37;;;;;;;28.88;13.75;;;;;;;3.10;100.00;101585.41;5115236;28;20063;-50
2021/12/20 00:55:06;;;;;;;25.10;12.65;;;;;;;3.13;100.00;101583.59;5115373;28;20062;-51
2021/12/20 00:57:34;;;;;;;29.70;14.25;;;;;;;3.21;100.00;101583.50;5114483;28;20054;-51
2021/12/20 01:00:05;;;;;;;27.88;13.80;;;;;;;3.20;100.00;101591.41;5115719;28;20052;-50
2021/12/20 01:02:33;;;;;;;23.83;12.77;;;;;;;3.14;100.00;101582.72;5118434;28;20051;-51
2021/12/20 01:05:03;;;;;;;27.85;13.40;;;;;;;3.16;100.00;101583.56;5119607;28;20415;-51
2021/12/20 01:07:32;;;;;;;24.70;12.25;;;;;;;3.20;100.00;101573.03;5119274;28;20062;-51
2021/12/20 01:10:03;;;;;;;22.35;11.77;;;;;;;3.22;100.00;101561.63;5118850;28;20083;-50
2021/12/20 01:12:41;;;;;;;24.80;12.70;;;;;;;3.24;100.00;101570.31;5119718;28;20225;-50
2021/12/20 01:15:10;;;;;;;22.13;11.57;;;;;;;3.19;100.00;101572.16;5118137;28;20533;-51
2021/12/20 01:17:38;;;;;;;28.00;13.13;;;;;;;3.20;100.00;101573.03;5118425;28;20056;-50
2021/12/20 01:20:10;;;;;;;26.02;13.65;;;;;;;3.22;100.00;101569.50;5118660;28;20134;-50
2021/12/20 01:22:38;;;;;;;25.17;12.90;;;;;;;3.23;100.00;101572.97;5119275;28;20056;-50
2021/12/20 01:25:07;;;;;;;27.88;14.77;;;;;;;3.31;100.00;101572.00;5118889;28;20487;-50
2021/12/20 01:27:35;;;;;;;29.88;14.40;;;;;;;3.30;100.00;101566.78;5118805;28;20058;-51
2021/12/20 01:30:04;;;;;;;27.65;13.07;;;;;;;3.26;100.00;101571.19;5118465;28;20494;-50
2021/12/20 01:32:33;;;;;;;22.40;13.25;;;;;;;3.29;100.00;101576.38;5118752;28;20055;-50
2021/12/20 01:35:01;;;;;;;33.65;14.05;;;;;;;3.23;100.00;101566.00;5118961;28;20128;-49
2021/12/20 01:37:31;;;;;;;23.35;11.90;;;;;;;3.16;100.00;101545.97;5118355;28;20056;-50
2021/12/20 01:39:59;;;;;;;26.83;13.10;;;;;;;3.22;100.00;101563.41;5118285;28;20058;-50
2021/12/20 01:42:30;;;;;;;27.45;13.90;;;;;;;3.22;100.00;101561.63;5118035;28;20059;-51
2021/12/20 01:44:59;;;;;;;25.08;13.45;;;;;;;3.40;100.00;101565.72;5117676;28;20055;-50
2021/12/20 01:47:31;;;;;;;24.27;12.57;;;;;;;3.36;100.00;101564.03;5118131;28;20541;-50
2021/12/20 01:50:05;;;;;;;26.33;12.23;;;;;;;3.32;100.00;101557.97;5117572;28;20051;-50
2021/12/20 01:52:40;;;;;;;22.33;11.63;;;;;;;3.32;100.00;101557.97;5117521;28;20056;-50
2021/12/20 01:55:09;;;;;;;22.63;13.05;;;;;;;3.26;100.00;101546.72;5118832;28;20056;-50
2021/12/20 01:57:38;;;;;;;25.63;13.10;;;;;;;3.28;100.00;101551.06;5117948;28;20499;-50
2021/12/20 02:00:08;;;;;;;25.63;13.30;;;;;;;3.33;100.00;101546.59;5118429;28;20064;-50
2021/12/20 02:02:37;;;;;;;25.27;12.65;;;;;;;3.34;100.00;101550.94;5118231;28;20052;-50
2021/12/20 02:05:16;;;;;;;27.00;13.05;;;;;;;3.33;100.00;101546.59;5118164;28;20055;-50
2021/12/20 02:07:59;;;;;;;24.05;12.75;;;;;;;3.26;100.00;101547.59;5118065;28;20415;-50
2021/12/20 02:10:27;;;;;;;21.27;12.65;;;;;;;3.28;100.00;101540.56;5117449;28;20137;-50
2021/12/20 02:12:55;;;;;;;22.08;11.85;;;;;;;3.28;100.00;101548.44;5117099;28;20048;-50
2021/12/20 02:15:23;;;;;;;26.05;12.23;;;;;;;3.31;100.00;101545.78;5117307;28;20503;-50
2021/12/20 02:17:51;;;;;;;23.70;12.18;;;;;;;3.33;100.00;101549.22;5118188;28;20062;-50
2021/12/20 02:20:29;;;;;;;22.15;11.77;;;;;;;3.35;100.00;101541.34;5117551;28;20431;-50
2021/12/20 02:22:58;;;;;;;25.58;11.90;;;;;;;3.40;100.00;101549.13;5117886;28;20052;-50
2021/12/20 02:25:28;;;;;;;24.67;12.57;;;;;;;3.33;100.00;101543.97;5117754;28;20414;-50
2021/12/20 02:27:57;;;;;;;22.30;11.77;;;;;;;3.32;100.00;101550.09;5117614;28;20503;-50
2021/12/20 02:30:41;;;;;;;23.00;11.38;;;;;;;3.27;100.00;101544.06;5117334;28;20062;-50
2021/12/20 02:38:44;;;;;;;24.40;12.05;;;;;;;3.30;100.00;101553.66;5118283;28;20062;-50
2021/12/20 02:41:21;;;;;;;20.92;11.55;;;;;;;3.28;100.00;101540.56;5116888;28;20051;-50
2021/12/20 02:43:54;;;;;;;22.27;12.88;;;;;;;3.23;100.00;101526.66;5117266;28;20052;-50
2021/12/20 02:46:48;;;;;;;26.10;12.57;;;;;;;3.30;100.00;101536.16;5117339;28;20056;-50
2021/12/20 02:49:18;;;;;;;25.42;11.63;;;;;;;3.31;100.00;101540.53;5117288;28;20070;-50
2021/12/20 02:51:50;;;;;;;19.75;11.93;;;;;;;3.33;100.00;101541.34;5116365;28;20055;-50
2021/12/20 02:54:19;;;;;;;22.88;11.27;;;;;;;3.32;100.00;101531.75;5117342;28;20059;-50
2021/12/20 02:56:48;;;;;;;23.10;11.45;;;;;;;3.34;100.00;101524.72;5116511;28;20056;-49
2021/12/20 02:59:17;;;;;;;23.77;11.20;;;;;;;3.32;100.00;101521.25;5117322;28;20059;-51
2021/12/20 03:01:48;;;;;;;20.13;11.45;;;;;;;3.31;100.00;101519.53;5116385;28;20058;-50
2021/12/20 03:04:17;;;;;;;24.85;12.55;;;;;;;3.35;100.00;101510.72;5116974;28;20052;-50
2021/12/20 03:06:49;;;;;;;20.92;11.75;;;;;;;3.34;100.00;101519.47;5116340;28;20051;-50
2021/12/20 03:09:20;;;;;;;18.92;10.70;;;;;;;3.42;100.00;101521.13;5117450;28;20384;-51
2021/12/20 03:11:51;;;;;;;23.48;12.02;;;;;;;3.51;100.00;101521.84;5116798;28;20056;-50
2021/12/20 03:14:24;;;;;;;19.73;11.30;;;;;;;3.52;100.00;101522.69;5116748;28;20410;-50
2021/12/20 03:16:53;;;;;;;22.20;12.10;;;;;;;3.45;100.00;101516.69;5116246;28;20052;-50
2021/12/20 03:19:21;;;;;;;21.40;12.10;;;;;;;3.48;100.00;101513.13;5117207;28;20051;-51
2021/12/20 03:21:51;;;;;;;21.42;11.55;;;;;;;3.47;100.00;101508.78;5116365;28;20117;-51
2021/12/20 03:24:19;;;;;;;22.10;11.75;;;;;;;3.51;100.00;101505.22;5115099;28;20503;-51
2021/12/20 03:26:48;;;;;;;23.52;11.73;;;;;;;3.52;100.00;101506.97;5115926;28;20056;-50
2021/12/20 03:29:16;;;;;;;24.35;12.45;;;;;;;3.54;100.00;101499.91;5116189;28;20048;-50
2021/12/20 03:31:44;;;;;;;22.73;12.13;;;;;;;3.50;100.00;101490.38;5116139;28;20062;-50
2021/12/20 03:34:12;;;;;;;20.85;11.95;;;;;;;3.54;100.00;101492.06;5116304;28;20093;-50
2021/12/20 03:36:41;;;;;;;22.95;11.13;;;;;;;3.52;100.00;101485.97;5115939;28;20438;-50
2021/12/20 03:39:11;;;;;;;20.55;11.93;;;;;;;3.56;100.00;101481.53;5115649;28;20063;-51
2021/12/20 03:41:39;;;;;;;24.95;13.00;;;;;;;3.58;100.00;101480.63;5115960;28;20051;-50
2021/12/20 03:44:08;;;;;;;21.70;11.80;;;;;;;3.58;100.00;101485.88;5115775;28;20059;-50
2021/12/20 03:46:37;;;;;;;24.40;12.57;;;;;;;3.55;100.00;101483.31;5115520;28;20061;-50
2021/12/20 03:49:07;;;;;;;22.88;11.93;;;;;;;3.58;100.00;101485.00;5116307;28;20059;-50
2021/12/20 03:51:35;;;;;;;24.85;13.10;;;;;;;3.58;100.00;101477.13;5116033;28;20056;-51
2021/12/20 03:54:04;;;;;;;23.52;11.98;;;;;;;3.54;100.00;101464.03;5116267;28;20058;-50
2021/12/20 03:56:33;;;;;;;24.92;12.13;;;;;;;3.54;100.00;101468.44;5115580;28;20059;-50
2021/12/20 03:59:02;;;;;;;25.58;12.30;;;;;;;3.57;100.00;101468.38;5116287;28;20502;-50
2021/12/20 04:01:31;;;;;;;23.83;12.40;;;;;;;3.61;100.00;101470.06;5116460;28;20084;-50
2021/12/20 04:04:00;;;;;;;24.85;12.32;;;;;;;3.61;100.00;101470.06;5114974;28;20435;-51
2021/12/20 04:06:31;;;;;;;25.85;12.95;;;;;;;3.62;100.00;101466.56;5116318;28;20059;-50
2021/12/20 04:08:59;;;;;;;24.05;12.25;;;;;;;3.59;100.00;101471.84;5115316;28;20055;-50
2021/12/20 04:11:28;;;;;;;24.73;12.70;;;;;;;3.59;100.00;101465.75;5115696;28;20056;-50
2021/12/20 04:13:57;;;;;;;23.60;12.25;;;;;;;3.59;100.00;101465.75;5116257;28;20415;-50
2021/12/20 04:16:26;;;;;;;24.50;12.60;;;;;;;3.63;100.00;101459.53;5114925;28;20055;-50
2021/12/20 04:18:54;;;;;;;26.75;13.55;;;;;;;3.61;100.00;101462.19;5115806;28;20545;-50
2021/12/20 04:21:22;;;;;;;25.23;12.65;;;;;;;3.60;100.00;101451.72;5114950;28;20052;-50
2021/12/20 04:23:51;;;;;;;26.25;12.27;;;;;;;3.59;100.00;101450.00;5115258;28;20056;-50
2021/12/20 04:26:19;;;;;;;23.40;12.55;;;;;;;3.63;100.00;101452.53;5115418;28;20507;-50
2021/12/20 04:28:47;;;;;;;24.05;11.73;;;;;;;3.67;100.00;101454.22;5114826;28;20056;-51
2021/12/20 04:31:17;;;;;;;22.40;11.18;;;;;;;3.65;100.00;101445.50;5114759;28;20059;-50
2021/12/20 04:33:45;;;;;;;21.63;10.85;;;;;;;3.67;100.00;101443.72;5115413;28;20090;-51
2021/12/20 04:36:13;;;;;;;28.85;11.75;;;;;;;3.74;100.00;101444.47;5114621;28;20056;-50
2021/12/20 04:38:43;;;;;;;27.88;12.38;;;;;;;3.78;100.00;101445.25;5114704;28;20060;-50
2021/12/20 04:41:11;;;;;;;24.90;11.95;;;;;;;3.73;100.00;101450.59;5114674;28;20052;-50
2021/12/20 04:43:39;;;;;;;22.02;11.02;;;;;;;3.66;100.00;101436.72;5114987;28;20063;-51
2021/12/20 04:46:11;;;;;;;23.42;10.90;;;;;;;3.70;100.00;101443.66;5114392;28;20138;-50
2021/12/20 04:48:40;;;;;;;26.33;12.68;;;;;;;3.70;100.00;101435.78;5114850;28;20411;-49
2021/12/20 04:51:09;;;;;;;26.08;11.38;;;;;;;3.69;100.00;101433.19;5114865;28;20051;-49
2021/12/20 04:53:38;;;;;;;28.13;12.63;;;;;;;3.68;100.00;101432.34;5114275;28;20056;-49
2021/12/20 04:56:06;;;;;;;20.45;11.27;;;;;;;3.65;100.00;101435.00;5114743;28;20063;-49
2021/12/20 04:58:34;;;;;;;25.02;12.25;;;;;;;3.63;100.00;101436.81;5114482;28;20067;-50
2021/12/20 05:01:02;;;;;;;22.25;12.40;;;;;;;3.72;100.00;101436.63;5114798;28;20051;-49
2021/12/20 05:03:30;;;;;;;22.40;11.57;;;;;;;3.68;100.00;101440.22;5115372;28;20402;-49
2021/12/20 05:06:00;;;;;;;20.30;11.23;;;;;;;3.66;100.00;101441.97;5114421;28;20572;-49
2021/12/20 05:08:34;;;;;;;21.75;11.13;;;;;;;3.67;100.00;101437.59;5114702;28;20062;-49
2021/12/20 05:11:03;;;;;;;24.92;11.25;;;;;;;3.65;100.00;101435.00;5115331;28;20058;-49
2021/12/20 05:13:32;;;;;;;20.13;10.65;;;;;;;3.64;100.00;101438.50;5114663;28;20051;-49
2021/12/20 05:16:00;;;;;;;22.80;11.63;;;;;;;3.72;100.00;101436.63;5114581;28;20082;-50
2021/12/20 05:18:28;;;;;;;22.75;10.98;;;;;;;3.68;100.00;101440.22;5114664;28;20055;-49
2021/12/20 05:20:56;;;;;;;21.00;10.70;;;;;;;3.70;100.00;101440.19;5114229;28;20534;-49
2021/12/20 05:23:26;;;;;;;21.40;10.27;;;;;;;3.66;100.00;101435.88;5114285;28;20074;-52
2021/12/20 05:25:55;;;;;;;22.90;10.27;;;;;;;3.70;100.00;101437.56;5114810;28;20062;-52
2021/12/20 05:28:24;;;;;;;20.90;10.50;;;;;;;3.66;100.00;101431.47;5114550;28;20056;-51
2021/12/20 05:30:53;;;;;;;21.90;10.23;;;;;;;3.61;100.00;101417.56;5114487;28;20058;-51
2021/12/20 05:33:22;;;;;;;19.88;10.70;;;;;;;3.70;100.00;101430.53;5114219;28;20066;-52
2021/12/20 05:35:50;;;;;;;19.58;10.40;;;;;;;3.66;100.00;101426.22;5114040;28;20062;-52
2021/12/20 05:38:19;;;;;;;21.58;10.95;;;;;;;3.65;100.00;101423.66;5114439;28;20154;-51
2021/12/20 05:40:49;;;;;;;20.50;10.35;;;;;;;3.64;100.00;101427.16;5114379;28;20052;-51
2021/12/20 05:43:17;;;;;;;19.85;10.63;;;;;;;3.68;100.00;101434.97;5114353;28;20422;-52
2021/12/20 05:45:45;;;;;;;19.83;10.50;;;;;;;3.70;100.00;101427.91;5114920;28;20052;-50
2021/12/20 05:48:13;;;;;;;18.75;9.75;;;;;;;3.74;100.00;101428.72;5117893;28;20052;-50
2021/12/20 05:50:41;;;;;;;19.73;9.65;;;;;;;3.66;100.00;101426.22;5118377;28;20070;-49
2021/12/20 05:53:09;;;;;;;22.00;9.65;;;;;;;3.68;100.00;101424.47;5118120;28;20082;-49
2021/12/20 05:55:38;;;;;;;17.50;9.50;;;;;;;3.71;100.00;101419.13;5117720;28;20058;-49
2021/12/20 05:58:07;;;;;;;17.77;10.00;;;;;;;3.68;100.00;101428.81;5117669;28;20059;-49
2021/12/20 06:00:35;;;;;;;18.00;9.65;;;;;;;3.68;100.00;101424.47;5117940;28;20060;-49
2021/12/20 06:03:04;;;;;;;18.65;10.30;;;;;;;3.68;100.00;101426.19;5117916;28;20052;-49
2021/12/20 06:05:32;;;;;;;19.73;10.02;;;;;;;3.58;100.00;101425.53;5117292;28;20503;-49
2021/12/20 06:08:02;;;;;;;19.98;10.05;;;;;;;3.50;100.00;101430.91;5117221;28;20142;-49
2021/12/20 06:10:30;;;;;;;17.23;9.02;;;;;;;3.52;100.00;101426.50;5118561;28;20055;-49
2021/12/20 06:12:58;;;;;;;19.90;9.63;;;;;;;3.51;100.00;101427.41;5117938;28;20052;-49
2021/12/20 06:15:28;;;;;;;18.00;9.65;;;;;;;3.47;100.00;101430.09;5118017;28;20384;-49
2021/12/20 06:17:56;;;;;;;20.63;9.80;;;;;;;3.42;100.00;101438.03;5117803;28;20068;-49
2021/12/20 06:20:25;;;;;;;20.60;9.57;;;;;;;3.42;100.00;101442.44;5117260;28;20062;-50
2021/12/20 06:22:53;;;;;;;17.63;9.23;;;;;;;3.40;100.00;101438.97;5117218;28;20051;-51
2021/12/20 06:25:22;;;;;;;21.75;10.57;;;;;;;3.41;100.00;101448.56;5117195;28;20052;-50
2021/12/20 06:27:50;;;;;;;17.30;8.98;;;;;;;3.40;100.00;101438.97;5117081;28;20060;-50
2021/12/20 06:30:18;;;;;;;18.95;9.95;;;;;;;3.37;100.00;101444.28;5117068;28;20048;-51
2021/12/20 06:32:48;;;;;;;17.83;9.65;;;;;;;3.37;100.00;101436.41;5117363;28;20055;-50
2021/12/20 06:35:34;;;;;;;18.35;9.00;;;;;;;3.45;100.00;101445.00;5116710;28;20056;-50
2021/12/20 06:38:03;;;;;;;16.80;9.43;;;;;;;3.46;100.00;101438.84;5116821;28;20051;-49
2021/12/20 06:40:33;;;;;;;18.50;9.25;;;;;;;3.54;100.00;101437.81;5116860;28;20081;-49
2021/12/20 06:43:02;;;;;;;19.13;10.30;;;;;;;3.52;100.00;101446.63;5117014;28;20142;-49
2021/12/20 06:45:30;;;;;;;19.15;9.60;;;;;;;3.50;100.00;101451.03;5116720;28;20058;-49
2021/12/20 06:48:00;;;;;;;16.63;9.38;;;;;;;3.50;100.00;101443.16;5116997;28;20072;-49
2021/12/20 06:50:28;;;;;;;20.17;10.75;;;;;;;3.45;100.00;101445.88;5116631;28;20087;-49
2021/12/20 06:52:56;;;;;;;19.60;10.27;;;;;;;3.30;100.00;101433.88;5116863;28;20060;-53
2021/12/20 06:55:25;;;;;;;18.20;9.13;;;;;;;3.32;100.00;101445.19;5117217;28;20059;-53
2021/12/20 06:57:53;;;;;;;18.38;10.00;;;;;;;3.32;100.00;101447.81;5116525;28;20060;-52
2021/12/20 07:00:23;;;;;;;18.63;10.07;;;;;;;3.38;100.00;101441.63;5117091;28;20444;-52
2021/12/20 07:02:51;;;;;;;18.55;10.15;;;;;;;3.32;100.00;101447.81;5116745;28;20055;-51
2021/12/20 07:05:24;;;;;;;20.85;10.02;;;;;;;3.27;100.00;101439.16;5116142;28;20058;-51
2021/12/20 07:07:53;;;;;;;18.92;10.35;;;;;;;3.26;100.00;101437.47;5116380;28;20059;-51
2021/12/20 07:10:21;;;;;;;17.67;9.52;;;;;;;3.27;100.00;101438.31;5116536;28;20494;-52
2021/12/20 07:12:51;;;;;;;20.88;10.13;;;;;;;3.17;100.00;101445.47;5116833;28;20056;-51
2021/12/20 07:15:19;;;;;;;18.67;9.93;;;;;;;3.14;100.00;101446.38;5117068;28;20051;-51
2021/12/20 07:17:47;;;;;;;22.40;9.70;;;;;;;3.16;100.00;101446.34;5116068;28;20059;-52
2021/12/20 07:20:16;;;;;;;18.23;9.75;;;;;;;3.11;100.00;101448.16;5116081;28;20615;-51
2021/12/20 07:22:45;;;;;;;17.48;10.07;;;;;;;3.10;100.00;101451.69;5116312;28;20059;-52
2021/12/20 07:25:14;;;;;;;22.02;10.80;;;;;;;3.08;100.00;101453.50;5116020;28;20125;-52
2021/12/20 07:27:45;;;;;;;20.98;10.45;;;;;;;3.10;100.00;101441.22;5115773;28;20400;-51
2021/12/20 07:30:13;;;;;;;20.88;10.38;;;;;;;3.06;100.00;101447.38;5116208;28;20407;-52
2021/12/20 07:32:41;;;;;;;23.45;11.05;;;;;;;3.02;100.00;101443.09;5116680;28;20067;-51
2021/12/20 07:35:10;;;;;;;23.88;10.45;;;;;;;3.01;100.00;101451.81;5116535;28;20062;-51
2021/12/20 07:37:38;;;;;;;22.25;11.40;;;;;;;3.08;100.00;101437.75;5116498;28;20059;-51
2021/12/20 07:40:09;;;;;;;19.02;10.10;;;;;;;3.11;100.00;101437.69;5115949;28;20059;-52
2021/12/20 07:42:37;;;;;;;18.10;9.93;;;;;;;3.18;100.00;101444.59;5116643;28;20067;-51
2021/12/20 07:45:07;;;;;;;24.58;10.50;;;;;;;3.09;100.00;101448.22;5074695;28;20059;-51
2021/12/20 07:47:46;;;;;;;23.33;10.30;;;;;;;3.15;100.00;101452.50;5075556;28;20083;-51
2021/12/20 07:50:14;;;;;;;21.00;10.98;;;;;;;3.09;100.00;101444.72;5075992;28;20130;-52
2021/12/20 07:52:42;;;;;;;20.48;10.32;;;;;;;3.02;100.00;101450.97;5075040;28;20411;-51
2021/12/20 07:55:12;;;;;;;20.88;11.32;;;;;;;3.00;100.00;101453.59;5074748;28;20447;-51
2021/12/20 07:57:40;;;;;;;26.10;11.50;;;;;;;2.96;100.00;101455.41;5075278;28;20060;-51
2021/12/20 08:00:11;;;;;;;22.75;11.52;;;;;;;2.87;100.00;101455.53;5075009;28;20052;-51
2021/12/20 08:02:39;;;;;;;21.27;11.05;;;;;;;2.79;100.00;101460.00;5075272;28;20052;-52
2021/12/20 08:05:08;;;;;;;21.38;10.35;;;;;;;2.71;100.00;101446.19;5075088;28;20052;-51
2021/12/20 08:07:36;;;;;;;21.38;11.10;;;;;;;2.77;100.00;101454.81;5075745;28;20064;-52
2021/12/20 08:10:05;;;;;;;22.35;11.00;;;;;;;2.74;100.00;101456.59;5074457;28;20056;-51
2021/12/20 08:12:35;;;;;;;25.85;12.20;;;;;;;2.65;100.00;101460.22;5074482;28;20072;-52
2021/12/20 08:15:04;;;;;;;23.50;11.25;;;;;;;2.58;100.00;101458.59;5074526;28;20539;-51
2021/12/20 08:17:32;;;;;;;21.80;11.23;;;;;;;2.56;100.00;101461.22;5075199;28;20069;-51
2021/12/20 08:20:00;;;;;;;24.15;12.07;;;;;;;2.56;100.00;101458.59;5074681;28;20095;-52
2021/12/20 08:22:28;;;;;;;21.83;11.75;;;;;;;2.55;100.00;101461.25;5074605;28;20527;-51
2021/12/20 08:24:57;;;;;;;23.27;11.68;;;;;;;2.53;100.00;101469.13;5074056;28;20052;-52
2021/12/20 08:27:26;;;;;;;23.48;11.27;;;;;;;2.47;100.00;101466.59;5074336;28;20138;-51
2021/12/20 08:29:55;;;;;;;23.45;11.68;;;;;;;2.40;100.00;101470.16;5075127;28;20052;-51
2021/12/20 08:32:23;;;;;;;20.13;11.20;;;;;;;2.39;100.00;101465.81;5074540;28;20064;-51
2021/12/20 08:34:53;;;;;;;25.55;12.02;;;;;;;2.40;100.00;101471.03;5075487;28;20140;-52
2021/12/20 08:37:22;;;;;;;23.15;11.73;;;;;;;2.37;100.00;101464.97;5074973;28;20056;-51
2021/12/20 08:39:50;;;;;;;24.17;11.85;;;;;;;2.32;100.00;101466.78;5074156;28;20056;-51
2021/12/20 08:42:19;;;;;;;24.20;11.88;;;;;;;2.29;100.00;101469.44;5074432;28;20053;-51
2021/12/20 08:44:47;;;;;;;20.92;11.07;;;;;;;2.28;100.00;101467.72;5110810;28;20410;-51
2021/12/20 08:47:18;;;;;;;23.98;11.05;;;;;;;2.31;100.00;101471.16;5114928;28;20495;-51
2021/12/20 08:49:46;;;;;;;24.85;11.75;;;;;;;2.35;100.00;101471.97;5115792;28;20135;-51
2021/12/20 08:52:14;;;;;;;24.27;11.85;;;;;;;2.39;100.00;101465.81;5115009;28;20051;-51
2021/12/20 08:54:42;;;;;;;25.23;11.68;;;;;;;2.46;100.00;101472.72;5114586;28;20052;-51
2021/12/20 08:57:11;;;;;;;26.38;11.20;;;;;;;2.52;100.00;101479.59;5114857;28;20062;-51
2021/12/20 08:59:39;;;;;;;22.00;11.02;;;;;;;2.46;100.00;101485.81;5114388;28;20055;-52
2021/12/20 09:02:09;;;;;;;21.65;11.02;;;;;;;2.42;100.00;101481.47;5114706;28;20052;-51
2021/12/20 09:04:39;;;;;;;22.67;10.55;;;;;;;2.56;100.00;101482.19;5115646;28;20442;-51
2021/12/20 09:07:14;;;;;;;21.58;10.82;;;;;;;2.48;100.00;101488.41;5114399;28;20067;-51
2021/12/20 09:09:44;;;;;;;21.60;10.95;;;;;;;2.46;100.00;101480.56;5114454;28;20507;-51
2021/12/20 09:12:14;;;;;;;25.70;11.05;;;;;;;2.49;100.00;101485.78;5114981;28;20062;-51
2021/12/20 09:14:43;;;;;;;22.35;11.70;;;;;;;2.44;100.00;101490.19;5114390;28;20056;-51
2021/12/20 09:17:11;;;;;;;22.67;11.02;;;;;;;2.51;100.00;101489.22;5114313;28;20067;-51
2021/12/20 09:19:40;;;;;;;21.95;11.20;;;;;;;2.41;100.00;101487.63;5115032;28;20436;-51
2021/12/20 09:22:11;;;;;;;22.83;11.60;;;;;;;2.34;100.00;101496.44;5117702;28;20055;-51
2021/12/20 09:24:40;;;;;;;25.05;11.43;;;;;;;2.34;100.00;101496.44;5119545;28;20052;-51
2021/12/20 09:27:09;;;;;;;23.15;12.18;;;;;;;2.39;100.00;101494.63;5118336;28;20052;-51
2021/12/20 09:29:37;;;;;;;22.70;10.93;;;;;;;2.45;100.00;101489.28;5118543;28;20553;-52
2021/12/20 09:32:06;;;;;;;24.30;11.80;;;;;;;2.52;100.00;101485.72;5118542;28;20059;-51
2021/12/20 09:34:34;;;;;;;23.13;11.85;;;;;;;2.58;100.00;101490.88;5118821;28;20055;-52
2021/12/20 09:37:07;;;;;;;19.63;11.65;;;;;;;2.59;100.00;101492.63;5118408;28;20058;-51
2021/12/20 09:39:38;;;;;;;21.77;11.32;;;;;;;2.64;100.00;101495.19;5118533;28;20060;-51
2021/12/20 09:42:07;;;;;;;22.67;11.73;;;;;;;2.68;100.00;101490.75;5119035;28;20062;-51
2021/12/20 09:44:36;;;;;;;19.83;11.77;;;;;;;2.57;100.00;101483.03;5118267;28;20060;-52
2021/12/20 09:47:04;;;;;;;28.00;13.13;;;;;;;2.50;100.00;101487.47;5117937;28;20059;-51
2021/12/20 09:49:33;;;;;;;26.45;12.57;;;;;;;2.49;100.00;101480.53;5118173;28;20063;-51
2021/12/20 09:52:01;;;;;;;22.40;11.90;;;;;;;2.56;100.00;101481.31;5119010;28;20078;-51
2021/12/20 09:54:31;;;;;;;27.92;14.32;;;;;;;2.59;100.00;101491.75;5117844;28;20063;-51
2021/12/20 09:57:02;;;;;;;23.75;12.70;;;;;;;2.72;100.00;101489.81;5118469;28;20059;-51
2021/12/20 09:59:32;;;;;;;19.70;10.32;;;;;;;2.82;100.00;101493.19;5118241;28;20162;-51
2021/12/20 10:02:00;;;;;;;24.20;12.38;;;;;;;2.80;100.00;101487.97;5118150;28;20063;-51
2021/12/20 10:04:28;;;;;;;24.52;11.80;;;;;;;2.88;100.00;101488.72;5117976;28;20071;-51
2021/12/20 10:07:01;;;;;;;22.15;11.25;;;;;;;2.95;100.00;101492.13;5118725;28;20051;-51
2021/12/20 10:09:33;;;;;;;24.35;11.20;;;;;;;2.82;100.00;101494.03;5118674;28;20399;-51
2021/12/20 10:12:21;;;;;;;21.92;12.57;;;;;;;2.69;100.00;101492.47;5117507;28;20073;-51
2021/12/20 10:14:58;;;;;;;22.45;11.60;;;;;;;2.64;100.00;101505.66;5118310;28;20058;-51
2021/12/20 10:17:29;;;;;;;23.77;11.38;;;;;;;2.69;100.00;101503.84;5117067;28;20495;-51
2021/12/20 10:20:12;;;;;;;25.65;12.55;;;;;;;2.64;100.00;101499.53;5117251;28;20142;-51
2021/12/20 10:22:40;;;;;;;25.23;12.88;;;;;;;2.67;100.00;101495.13;5117728;28;20055;-51
2021/12/20 10:25:26;;;;;;;25.58;13.30;;;;;;;2.70;100.00;101502.09;5117815;28;20089;-51
2021/12/20 10:27:55;;;;;;;24.73;11.20;;;;;;;2.72;100.00;101497.69;5117465;28;20052;-51
2021/12/20 10:30:27;;;;;;;22.33;11.90;;;;;;;2.73;100.00;101499.44;5117344;28;20059;-52
2021/12/20 10:32:56;;;;;;;25.08;13.63;;;;;;;2.76;100.00;101496.78;5117000;28;20062;-51
2021/12/20 10:35:37;;;;;;;23.10;12.23;;;;;;;2.92;100.00;101500.88;5117701;28;20478;-51
2021/12/20 10:38:08;;;;;;;20.00;9.60;;;;;;;2.85;100.00;101504.47;5117025;28;20051;-52
2021/12/20 10:40:48;;;;;;;22.00;12.00;;;;;;;2.65;100.00;101501.28;5116633;28;20055;-51
2021/12/20 10:43:21;;;;;;;24.85;11.98;;;;;;;2.74;100.00;101501.13;5116907;28;20285;-51
2021/12/20 10:45:51;;;;;;;26.17;12.82;;;;;;;2.69;100.00;101500.34;5116871;28;20085;-52
2021/12/20 10:48:35;;;;;;;25.17;12.77;;;;;;;2.69;100.00;101502.97;5117524;28;20130;-51
2021/12/20 10:51:03;;;;;;;26.75;12.50;;;;;;;2.67;100.00;101494.25;5116995;28;20056;-51
2021/12/20 10:53:31;;;;;;;23.88;13.57;;;;;;;2.67;100.00;101494.25;5116742;28;20063;-51
2021/12/20 10:56:04;;;;;;;22.80;13.23;;;;;;;2.76;100.00;101491.53;5117272;28;20055;-51
2021/12/20 10:58:54;;;;;;;23.02;12.27;;;;;;;2.72;100.00;101492.44;5116232;28;20135;-51
2021/12/20 11:01:40;;;;;;;22.85;13.35;;;;;;;2.74;100.00;101482.78;5116767;28;20058;-52
2021/12/20 11:04:12;;;;;;;27.35;13.55;;;;;;;2.77;100.00;101496.75;5116802;28;20066;-52
2021/12/20 11:09:26;;;;;;;27.38;13.52;;;;;;;2.98;100.00;101479.81;5116065;28;20056;-52
2021/12/20 11:11:59;;;;;;;22.17;12.95;;;;;;;2.86;100.00;101487.88;5116334;28;20055;-51
2021/12/20 11:14:29;;;;;;;27.52;13.48;;;;;;;2.91;100.00;101487.81;5116252;28;20056;-51
2021/12/20 11:16:58;;;;;;;21.58;11.13;;;;;;;2.97;100.00;101478.09;5116157;28;20048;-52
2021/12/20 11:19:29;;;;;;;26.20;12.30;;;;;;;2.99;100.00;101472.81;5116386;28;20071;-52
2021/12/20 11:22:01;;;;;;;24.35;12.93;;;;;;;3.00;100.00;101471.09;5116531;28;20431;-51
2021/12/20 11:24:30;;;;;;;;;;;;;;;3.04;100.00;101472.75;5116233;28;20056;-51
2021/12/20 11:27:02;;;;;;;24.45;13.40;;;;;;;2.98;100.00;101463.25;5116002;28;19920;-51
2021/12/20 11:29:30;;;;;;;30.08;13.48;;;;;;;2.89;100.00;101482.59;5116031;28;20056;-51
2021/12/20 11:32:00;;;;;;;27.25;13.95;;;;;;;2.99;100.00;101475.44;5116118;28;20063;-51
2021/12/20 11:34:29;;;;;;;29.90;16.05;;;;;;;2.97;100.00;101461.50;5115909;28;20070;-51